sensor_id;sensor_type;location;lat;lon;timestamp;pressure;altitude;pressure_sealevel;temperature;humidity
71778;BME280;59609;52.430;4.668;2022-12-29T00:01:43;99789.41;;;12.34;100.00
71778;BME280;59609;52.430;4.668;2022-12-29T00:04:11;99779.78;;;12.23;100.00
71778;BME280;59609;52.430;4.668;2022-12-29T00:06:37;99759.59;;;12.23;100.00
71778;BME280;59609;52.430;4.668;2022-12-29T00:09:02;99771.84;;;12.14;100.00
71778;BME280;59609;52.430;4.668;2022-12-29T00:11:28;99768.84;;;12.09;100.00
71778;BME280;59609;52.430;4.668;2022-12-29T00:13:53;99763.22;;;11.96;100.00
71778;BME280;59609;52.430;4.668;2022-12-29T00:16:41;99777.63;;;11.91;100.00
71778;BME280;59609;52.430;4.668;2022-12-29T00:19:07;99760.50;;;12.02;100.00
71778;BME280;59609;52.430;4.668;2022-12-29T00:21:52;99754.72;;;11.91;100.00
71778;BME280;59609;52.430;4.668;2022-12-29T00:24:36;99748.56;;;11.95;100.00
71778;BME280;59609;52.430;4.668;2022-12-29T00:27:20;99748.78;;;11.94;100.00
71778;BME280;59609;52.430;4.668;2022-12-29T00:30:12;99721.97;;;11.87;100.00
71778;BME280;59609;52.430;4.668;2022-12-29T00:32:56;99723.66;;;11.82;100.00
71778;BME280;59609;52.430;4.668;2022-12-29T00:35:46;99728.59;;;11.65;100.00
71778;BME280;59609;52.430;4.668;2022-12-29T00:38:16;99724.91;;;11.79;100.00
71778;BME280;59609;52.430;4.668;2022-12-29T00:41:00;99710.75;;;11.89;100.00
71778;BME280;59609;52.430;4.668;2022-12-29T00:43:44;99705.63;;;11.86;100.00
71778;BME280;59609;52.430;4.668;2022-12-29T00:46:28;99695.09;;;11.96;100.00
71778;BME280;59609;52.430;4.668;2022-12-29T00:48:53;99690.00;;;12.00;100.00
71778;BME280;59609;52.430;4.668;2022-12-29T00:51:37;99674.34;;;12.07;100.00
71778;BME280;59609;52.430;4.668;2022-12-29T00:54:02;99687.69;;;12.03;100.00
71778;BME280;59609;52.430;4.668;2022-12-29T00:56:27;99677.91;;;12.01;100.00
71778;BME280;59609;52.430;4.668;2022-12-29T00:58:53;99672.66;;;12.12;100.00
71778;BME280;59609;52.430;4.668;2022-12-29T01:01:18;99667.28;;;12.04;100.00
71778;BME280;59609;52.430;4.668;2022-12-29T01:03:46;99660.75;;;12.12;100.00
71778;BME280;59609;52.430;4.668;2022-12-29T01:06:11;99682.34;;;12.02;100.00
71778;BME280;59609;52.430;4.668;2022-12-29T01:08:37;99667.75;;;12.14;100.00
71778;BME280;59609;52.430;4.668;2022-12-29T01:11:10;99663.53;;;12.18;100.00
71778;BME280;59609;52.430;4.668;2022-12-29T01:13:36;99617.00;;;12.09;100.00
71778;BME280;59609;52.430;4.668;2022-12-29T01:16:04;99651.59;;;12.11;100.00
71778;BME280;59609;52.430;4.668;2022-12-29T01:18:30;99647.78;;;12.06;100.00
71778;BME280;59609;52.430;4.668;2022-12-29T01:21:05;99652.91;;;12.15;100.00
71778;BME280;59609;52.430;4.668;2022-12-29T01:23:32;99659.44;;;12.08;100.00
71778;BME280;59609;52.430;4.668;2022-12-29T01:25:57;99661.81;;;12.11;100.00
71778;BME280;59609;52.430;4.668;2022-12-29T01:28:32;99668.09;;;11.92;100.00
71778;BME280;59609;52.430;4.668;2022-12-29T01:31:00;99672.63;;;12.06;100.00
71778;BME280;59609;52.430;4.668;2022-12-29T01:33:25;99697.34;;;11.86;100.00
71778;BME280;59609;52.430;4.668;2022-12-29T01:35:50;99688.78;;;11.74;100.00
71778;BME280;59609;52.430;4.668;2022-12-29T01:38:16;99672.97;;;11.62;100.00
71778;BME280;59609;52.430;4.668;2022-12-29T01:40:46;99695.72;;;11.64;100.00
71778;BME280;59609;52.430;4.668;2022-12-29T01:43:13;99696.25;;;11.53;100.00
71778;BME280;59609;52.430;4.668;2022-12-29T01:45:47;99673.34;;;11.52;100.00
71778;BME280;59609;52.430;4.668;2022-12-29T01:48:14;99711.75;;;11.54;100.00
71778;BME280;59609;52.430;4.668;2022-12-29T01:50:50;99695.41;;;11.52;100.00
71778;BME280;59609;52.430;4.668;2022-12-29T01:53:25;99698.22;;;11.59;100.00
71778;BME280;59609;52.430;4.668;2022-12-29T01:55:56;99717.00;;;11.49;100.00
71778;BME280;59609;52.430;4.668;2022-12-29T01:58:27;99682.97;;;11.35;100.00
71778;BME280;59609;52.430;4.668;2022-12-29T02:00:54;99693.03;;;11.21;100.00
71778;BME280;59609;52.430;4.668;2022-12-29T02:03:21;99701.56;;;11.26;100.00
71778;BME280;59609;52.430;4.668;2022-12-29T02:05:53;99678.53;;;11.34;100.00
71778;BME280;59609;52.430;4.668;2022-12-29T02:08:22;99676.34;;;11.29;100.00
71778;BME280;59609;52.430;4.668;2022-12-29T02:10:49;99680.38;;;11.27;100.00
71778;BME280;59609;52.430;4.668;2022-12-29T02:13:16;99673.78;;;11.28;100.00
71778;BME280;59609;52.430;4.668;2022-12-29T02:39:59;99673.94;;;11.48;100.00
71778;BME280;59609;52.430;4.668;2022-12-29T02:42:51;99676.28;;;11.44;100.00
71778;BME280;59609;52.430;4.668;2022-12-29T02:48:22;99668.81;;;11.45;99.29
71778;BME280;59609;52.430;4.668;2022-12-29T02:51:06;99692.16;;;11.42;98.63
71778;BME280;59609;52.430;4.668;2022-12-29T02:53:34;99674.69;;;11.35;98.38
71778;BME280;59609;52.430;4.668;2022-12-29T02:56:19;99667.56;;;11.19;98.37
71778;BME280;59609;52.430;4.668;2022-12-29T02:58:45;99682.63;;;11.17;98.80
71778;BME280;59609;52.430;4.668;2022-12-29T03:04:17;99680.78;;;11.03;100.00
71778;BME280;59609;52.430;4.668;2022-12-29T03:09:50;99683.94;;;11.00;100.00
71778;BME280;59609;52.430;4.668;2022-12-29T03:15:41;99676.47;;;10.94;100.00
71778;BME280;59609;52.430;4.668;2022-12-29T03:24:10;99684.19;;;11.05;100.00
71778;BME280;59609;52.430;4.668;2022-12-29T03:26:37;99656.91;;;11.10;100.00
71778;BME280;59609;52.430;4.668;2022-12-29T03:29:05;99672.19;;;11.12;100.00
71778;BME280;59609;52.430;4.668;2022-12-29T03:31:32;99672.63;;;11.16;100.00
71778;BME280;59609;52.430;4.668;2022-12-29T03:33:58;99668.88;;;11.23;100.00
71778;BME280;59609;52.430;4.668;2022-12-29T03:36:30;99687.72;;;11.20;100.00
71778;BME280;59609;52.430;4.668;2022-12-29T03:39:07;99681.75;;;11.16;100.00
71778;BME280;59609;52.430;4.668;2022-12-29T03:41:38;99678.66;;;11.26;100.00
71778;BME280;59609;52.430;4.668;2022-12-29T03:44:05;99682.22;;;11.20;100.00
71778;BME280;59609;52.430;4.668;2022-12-29T03:46:31;99683.31;;;11.25;100.00
71778;BME280;59609;52.430;4.668;2022-12-29T03:48:56;99705.72;;;11.16;100.00
71778;BME280;59609;52.430;4.668;2022-12-29T03:51:22;99683.66;;;11.16;100.00
71778;BME280;59609;52.430;4.668;2022-12-29T03:53:47;99694.75;;;11.01;100.00
71778;BME280;59609;52.430;4.668;2022-12-29T03:56:13;99702.78;;;10.96;100.00
71778;BME280;59609;52.430;4.668;2022-12-29T03:58:38;99689.25;;;11.01;100.00
71778;BME280;59609;52.430;4.668;2022-12-29T04:01:03;99687.63;;;11.07;99.72
71778;BME280;59609;52.430;4.668;2022-12-29T04:03:29;99689.97;;;11.10;99.75
71778;BME280;59609;52.430;4.668;2022-12-29T04:05:54;99696.69;;;11.01;99.40
71778;BME280;59609;52.430;4.668;2022-12-29T04:08:19;99685.31;;;11.10;99.09
71778;BME280;59609;52.430;4.668;2022-12-29T04:10:44;99676.44;;;11.15;98.75
71778;BME280;59609;52.430;4.668;2022-12-29T04:13:10;99674.28;;;11.10;98.85
71778;BME280;59609;52.430;4.668;2022-12-29T04:15:36;99680.06;;;11.15;98.24
71778;BME280;59609;52.430;4.668;2022-12-29T04:18:01;99675.63;;;11.21;97.57
71778;BME280;59609;52.430;4.668;2022-12-29T04:20:26;99674.00;;;11.26;97.43
71778;BME280;59609;52.430;4.668;2022-12-29T04:23:10;99678.91;;;11.31;97.26
71778;BME280;59609;52.430;4.668;2022-12-29T04:25:36;99673.19;;;11.32;96.39
71778;BME280;59609;52.430;4.668;2022-12-29T04:28:02;99689.28;;;11.29;96.81
71778;BME280;59609;52.430;4.668;2022-12-29T04:30:27;99685.13;;;11.40;95.88
71778;BME280;59609;52.430;4.668;2022-12-29T04:32:52;99681.75;;;11.16;96.18
71778;BME280;59609;52.430;4.668;2022-12-29T04:35:18;99694.78;;;11.29;95.78
71778;BME280;59609;52.430;4.668;2022-12-29T04:37:43;99689.09;;;11.30;95.14
71778;BME280;59609;52.430;4.668;2022-12-29T04:40:09;99698.94;;;11.18;95.43
71778;BME280;59609;52.430;4.668;2022-12-29T04:42:34;99697.91;;;11.19;95.10
71778;BME280;59609;52.430;4.668;2022-12-29T04:45:00;99697.97;;;11.05;95.13
71778;BME280;59609;52.430;4.668;2022-12-29T04:47:25;99678.78;;;11.18;94.67
71778;BME280;59609;52.430;4.668;2022-12-29T04:49:50;99697.00;;;11.12;94.64
71778;BME280;59609;52.430;4.668;2022-12-29T04:52:16;99697.25;;;11.17;95.11
71778;BME280;59609;52.430;4.668;2022-12-29T04:54:41;99696.41;;;11.17;95.81
71778;BME280;59609;52.430;4.668;2022-12-29T04:57:06;99685.31;;;11.10;96.20
71778;BME280;59609;52.430;4.668;2022-12-29T04:59:32;99702.25;;;11.07;96.84
71778;BME280;59609;52.430;4.668;2022-12-29T05:01:57;99689.84;;;10.97;97.37
71778;BME280;59609;52.430;4.668;2022-12-29T05:04:22;99675.69;;;11.00;97.41
71778;BME280;59609;52.430;4.668;2022-12-29T05:06:48;99689.84;;;10.97;97.66
71778;BME280;59609;52.430;4.668;2022-12-29T05:09:13;99699.28;;;10.88;98.74
71778;BME280;59609;52.430;4.668;2022-12-29T05:11:38;99699.91;;;10.83;98.92
71778;BME280;59609;52.430;4.668;2022-12-29T05:14:04;99700.09;;;10.81;98.83
71778;BME280;59609;52.430;4.668;2022-12-29T05:16:29;99706.00;;;10.78;98.90
71778;BME280;59609;52.430;4.668;2022-12-29T05:18:55;99705.06;;;10.93;98.02
71778;BME280;59609;52.430;4.668;2022-12-29T05:21:20;99722.25;;;10.95;97.89
71778;BME280;59609;52.430;4.668;2022-12-29T05:23:45;99723.19;;;11.02;97.59
71778;BME280;59609;52.430;4.668;2022-12-29T05:26:11;99721.94;;;10.83;97.74
71778;BME280;59609;52.430;4.668;2022-12-29T05:28:36;99718.56;;;10.88;98.06
71778;BME280;59609;52.430;4.668;2022-12-29T05:31:01;99712.31;;;10.94;97.53
71778;BME280;59609;52.430;4.668;2022-12-29T05:33:27;99716.50;;;10.90;97.18
71778;BME280;59609;52.430;4.668;2022-12-29T05:35:52;99727.59;;;10.96;97.57
71778;BME280;59609;52.430;4.668;2022-12-29T05:38:17;99714.84;;;10.95;97.79
71778;BME280;59609;52.430;4.668;2022-12-29T05:40:43;99716.75;;;10.95;97.47
71778;BME280;59609;52.430;4.668;2022-12-29T05:43:08;99735.78;;;10.90;97.78
71778;BME280;59609;52.430;4.668;2022-12-29T05:45:35;99718.56;;;10.88;97.84
71778;BME280;59609;52.430;4.668;2022-12-29T05:48:00;99721.16;;;10.89;97.01
71778;BME280;59609;52.430;4.668;2022-12-29T05:50:26;99726.78;;;10.81;97.34
71778;BME280;59609;52.430;4.668;2022-12-29T05:52:52;99729.06;;;10.77;97.90
71778;BME280;59609;52.430;4.668;2022-12-29T05:55:17;99717.09;;;10.64;98.89
71778;BME280;59609;52.430;4.668;2022-12-29T05:57:42;99735.56;;;10.70;99.28
71778;BME280;59609;52.430;4.668;2022-12-29T06:00:08;99727.38;;;10.76;99.52
71778;BME280;59609;52.430;4.668;2022-12-29T06:02:34;99755.72;;;10.70;100.00
71778;BME280;59609;52.430;4.668;2022-12-29T06:04:59;99739.59;;;10.67;100.00
71778;BME280;59609;52.430;4.668;2022-12-29T06:07:25;99748.09;;;10.72;99.41
71778;BME280;59609;52.430;4.668;2022-12-29T06:09:50;99738.41;;;10.76;99.45
71778;BME280;59609;52.430;4.668;2022-12-29T06:12:15;99751.31;;;10.76;98.97
71778;BME280;59609;52.430;4.668;2022-12-29T06:14:41;99744.16;;;10.81;98.10
71778;BME280;59609;52.430;4.668;2022-12-29T06:17:07;99756.50;;;10.85;97.47
71778;BME280;59609;52.430;4.668;2022-12-29T06:19:34;99756.00;;;10.97;96.52
71778;BME280;59609;52.430;4.668;2022-12-29T06:22:00;99764.06;;;10.98;96.03
71778;BME280;59609;52.430;4.668;2022-12-29T06:24:25;99763.88;;;11.00;95.48
71778;BME280;59609;52.430;4.668;2022-12-29T06:26:50;99788.88;;;10.98;95.75
71778;BME280;59609;52.430;4.668;2022-12-29T06:29:16;99754.34;;;11.02;95.37
71778;BME280;59609;52.430;4.668;2022-12-29T06:31:43;99770.72;;;11.04;95.61
71778;BME280;59609;52.430;4.668;2022-12-29T06:34:10;99755.22;;;11.03;95.61
71778;BME280;59609;52.430;4.668;2022-12-29T06:36:36;99746.66;;;10.98;95.29
71778;BME280;59609;52.430;4.668;2022-12-29T06:39:01;99756.41;;;10.94;95.86
71778;BME280;59609;52.430;4.668;2022-12-29T06:41:26;99759.81;;;10.96;95.82
71778;BME280;59609;52.430;4.668;2022-12-29T06:43:52;99763.13;;;10.91;95.52
71778;BME280;59609;52.430;4.668;2022-12-29T06:46:17;99755.22;;;11.03;94.79
71778;BME280;59609;52.430;4.668;2022-12-29T06:48:42;99742.06;;;11.05;94.40
71778;BME280;59609;52.430;4.668;2022-12-29T06:51:08;99749.41;;;10.98;94.20
71778;BME280;59609;52.430;4.668;2022-12-29T06:53:33;99759.41;;;10.99;94.30
71778;BME280;59609;52.430;4.668;2022-12-29T06:55:59;99755.72;;;10.92;94.95
71778;BME280;59609;52.430;4.668;2022-12-29T06:58:24;99763.66;;;10.80;95.22
71778;BME280;59609;52.430;4.668;2022-12-29T07:00:49;99756.72;;;10.84;95.04
71778;BME280;59609;52.430;4.668;2022-12-29T07:03:15;99752.34;;;10.75;94.80
71778;BME280;59609;52.430;4.668;2022-12-29T07:05:40;99758.47;;;10.92;93.53
71778;BME280;59609;52.430;4.668;2022-12-29T07:08:05;99751.97;;;10.78;93.58
71778;BME280;59609;52.430;4.668;2022-12-29T07:10:31;99747.28;;;10.93;93.00
71778;BME280;59609;52.430;4.668;2022-12-29T07:12:56;99752.56;;;10.95;92.36
71778;BME280;59609;52.430;4.668;2022-12-29T07:15:22;99756.47;;;11.00;91.76
71778;BME280;59609;52.430;4.668;2022-12-29T07:17:47;99762.91;;;11.07;91.33
71778;BME280;59609;52.430;4.668;2022-12-29T07:20:14;99764.44;;;10.95;91.94
71778;BME280;59609;52.430;4.668;2022-12-29T07:22:40;99764.53;;;11.02;92.31
71778;BME280;59609;52.430;4.668;2022-12-29T07:25:05;99765.38;;;11.02;92.71
71778;BME280;59609;52.430;4.668;2022-12-29T07:27:31;99759.28;;;11.07;92.80
71778;BME280;59609;52.430;4.668;2022-12-29T07:29:56;99766.88;;;11.05;92.91
71778;BME280;59609;52.430;4.668;2022-12-29T07:32:22;99765.72;;;10.93;93.27
71778;BME280;59609;52.430;4.668;2022-12-29T07:34:47;99760.97;;;11.08;92.70
71778;BME280;59609;52.430;4.668;2022-12-29T07:37:14;99771.16;;;11.07;92.57
71778;BME280;59609;52.430;4.668;2022-12-29T07:39:40;99761.66;;;11.10;92.63
71778;BME280;59609;52.430;4.668;2022-12-29T07:42:05;99740.78;;;11.01;92.81
71778;BME280;59609;52.430;4.668;2022-12-29T07:44:31;99789.31;;;11.02;92.38
71778;BME280;59609;52.430;4.668;2022-12-29T07:46:56;99786.47;;;11.10;92.58
71778;BME280;59609;52.430;4.668;2022-12-29T07:49:21;99771.03;;;11.15;92.47
71778;BME280;59609;52.430;4.668;2022-12-29T07:51:47;99787.03;;;11.05;92.10
71778;BME280;59609;52.430;4.668;2022-12-29T07:54:12;99772.88;;;11.29;91.51
71778;BME280;59609;52.430;4.668;2022-12-29T07:56:38;99780.41;;;11.21;90.48
71778;BME280;59609;52.430;4.668;2022-12-29T07:59:03;99802.97;;;11.31;89.72
71778;BME280;59609;52.430;4.668;2022-12-29T08:01:29;99791.81;;;11.39;89.33
71778;BME280;59609;52.430;4.668;2022-12-29T08:03:54;99780.09;;;11.30;89.36
71778;BME280;59609;52.430;4.668;2022-12-29T08:06:19;99784.47;;;11.25;89.32
71778;BME280;59609;52.430;4.668;2022-12-29T08:08:45;99799.69;;;11.42;89.50
71778;BME280;59609;52.430;4.668;2022-12-29T08:11:11;99767.28;;;11.23;89.64
71778;BME280;59609;52.430;4.668;2022-12-29T08:13:36;99789.59;;;11.28;91.04
71778;BME280;59609;52.430;4.668;2022-12-29T08:16:01;99800.63;;;11.28;91.46
71778;BME280;59609;52.430;4.668;2022-12-29T08:18:27;99823.06;;;11.04;93.41
71778;BME280;59609;52.430;4.668;2022-12-29T08:20:52;99797.28;;;11.11;93.86
71778;BME280;59609;52.430;4.668;2022-12-29T08:23:17;99806.16;;;11.07;95.97
71778;BME280;59609;52.430;4.668;2022-12-29T08:25:43;99808.47;;;10.89;97.96
71778;BME280;59609;52.430;4.668;2022-12-29T08:28:08;99804.84;;;10.67;100.00
71778;BME280;59609;52.430;4.668;2022-12-29T08:30:33;99819.56;;;10.59;100.00
71778;BME280;59609;52.430;4.668;2022-12-29T08:32:59;99821.84;;;10.70;100.00
71778;BME280;59609;52.430;4.668;2022-12-29T08:35:24;99816.63;;;10.46;100.00
71778;BME280;59609;52.430;4.668;2022-12-29T08:37:49;99820.97;;;10.55;100.00
71778;BME280;59609;52.430;4.668;2022-12-29T08:40:15;99817.50;;;10.47;100.00
71778;BME280;59609;52.430;4.668;2022-12-29T08:42:40;99826.59;;;10.32;100.00
71778;BME280;59609;52.430;4.668;2022-12-29T08:45:06;99804.66;;;10.54;100.00
71778;BME280;59609;52.430;4.668;2022-12-29T08:47:32;99808.38;;;10.46;100.00
71778;BME280;59609;52.430;4.668;2022-12-29T08:49:58;99832.84;;;10.41;100.00
71778;BME280;59609;52.430;4.668;2022-12-29T08:52:23;99830.19;;;10.48;100.00
71778;BME280;59609;52.430;4.668;2022-12-29T08:54:48;99823.94;;;10.54;100.00
71778;BME280;59609;52.430;4.668;2022-12-29T08:57:14;99826.22;;;10.50;100.00
71778;BME280;59609;52.430;4.668;2022-12-29T08:59:39;99826.41;;;10.63;100.00
71778;BME280;59609;52.430;4.668;2022-12-29T09:02:05;99837.97;;;10.73;100.00
71778;BME280;59609;52.430;4.668;2022-12-29T09:04:30;99848.34;;;10.57;100.00
71778;BME280;59609;52.430;4.668;2022-12-29T09:06:56;99829.88;;;10.72;100.00
71778;BME280;59609;52.430;4.668;2022-12-29T09:09:21;99837.59;;;10.76;100.00
71778;BME280;59609;52.430;4.668;2022-12-29T09:11:46;99846.03;;;10.75;100.00
71778;BME280;59609;52.430;4.668;2022-12-29T09:14:12;99857.22;;;10.88;100.00
71778;BME280;59609;52.430;4.668;2022-12-29T09:16:38;99867.13;;;10.68;100.00
71778;BME280;59609;52.430;4.668;2022-12-29T09:19:04;99853.66;;;10.73;100.00
71778;BME280;59609;52.430;4.668;2022-12-29T09:21:30;99876.53;;;10.73;100.00
71778;BME280;59609;52.430;4.668;2022-12-29T09:23:55;99867.84;;;10.91;100.00
71778;BME280;59609;52.430;4.668;2022-12-29T09:26:20;99871.59;;;10.83;100.00
71778;BME280;59609;52.430;4.668;2022-12-29T09:28:46;99885.94;;;10.79;100.00
71778;BME280;59609;52.430;4.668;2022-12-29T09:31:12;99894.50;;;10.84;100.00
71778;BME280;59609;52.430;4.668;2022-12-29T09:33:37;99896.00;;;10.87;100.00
71778;BME280;59609;52.430;4.668;2022-12-29T09:36:03;99913.00;;;10.90;100.00
71778;BME280;59609;52.430;4.668;2022-12-29T09:38:28;99911.94;;;10.91;100.00
71778;BME280;59609;52.430;4.668;2022-12-29T09:41:25;99923.81;;;10.92;100.00
71778;BME280;59609;52.430;4.668;2022-12-29T09:44:10;99927.25;;;10.94;100.00
71778;BME280;59609;52.430;4.668;2022-12-29T09:46:39;99925.38;;;10.79;100.00
71778;BME280;59609;52.430;4.668;2022-12-29T09:49:16;99932.38;;;10.82;100.00
71778;BME280;59609;52.430;4.668;2022-12-29T09:51:47;99945.41;;;10.88;100.00
71778;BME280;59609;52.430;4.668;2022-12-29T09:54:24;99959.47;;;10.78;100.00
71778;BME280;59609;52.430;4.668;2022-12-29T09:56:54;99956.81;;;11.00;100.00
71778;BME280;59609;52.430;4.668;2022-12-29T09:59:23;99962.75;;;11.18;100.00
71778;BME280;59609;52.430;4.668;2022-12-29T10:02:03;99973.03;;;11.09;100.00
71778;BME280;59609;52.430;4.668;2022-12-29T10:04:31;99983.59;;;11.20;100.00
71778;BME280;59609;52.430;4.668;2022-12-29T10:09:37;99987.66;;;11.24;100.00
71778;BME280;59609;52.430;4.668;2022-12-29T10:15:40;99995.00;;;11.17;100.00
71778;BME280;59609;52.430;4.668;2022-12-29T10:23:29;100011.50;;;11.47;97.72
71778;BME280;59609;52.430;4.668;2022-12-29T10:25:58;100011.44;;;11.40;97.13
71778;BME280;59609;52.430;4.668;2022-12-29T10:28:40;100022.34;;;11.48;95.78
71778;BME280;59609;52.430;4.668;2022-12-29T10:31:20;100020.91;;;11.37;95.28
71778;BME280;59609;52.430;4.668;2022-12-29T10:33:49;100011.59;;;11.53;94.62
71778;BME280;59609;52.430;4.668;2022-12-29T10:36:39;100019.69;;;11.40;94.14
71778;BME280;59609;52.430;4.668;2022-12-29T10:39:19;100030.22;;;11.51;93.87
71778;BME280;59609;52.430;4.668;2022-12-29T10:41:51;100040.56;;;11.78;92.90
71778;BME280;59609;52.430;4.668;2022-12-29T10:44:19;100045.41;;;11.62;92.70
71778;BME280;59609;52.430;4.668;2022-12-29T10:46:54;100049.44;;;11.59;92.92
71778;BME280;59609;52.430;4.668;2022-12-29T10:49:20;100048.50;;;11.52;92.90
71778;BME280;59609;52.430;4.668;2022-12-29T10:51:47;100073.78;;;11.56;92.09
71778;BME280;59609;52.430;4.668;2022-12-29T10:54:18;100078.66;;;11.54;91.00
71778;BME280;59609;52.430;4.668;2022-12-29T10:56:50;100080.03;;;11.64;89.87
71778;BME280;59609;52.430;4.668;2022-12-29T10:59:21;100087.09;;;11.52;89.85
71778;BME280;59609;52.430;4.668;2022-12-29T11:05:02;100088.75;;;11.47;89.58
71778;BME280;59609;52.430;4.668;2022-12-29T11:07:29;100096.97;;;11.61;89.51
71778;BME280;59609;52.430;4.668;2022-12-29T11:09:55;100096.31;;;11.45;89.53
71778;BME280;59609;52.430;4.668;2022-12-29T11:12:40;100105.47;;;11.45;88.04
71778;BME280;59609;52.430;4.668;2022-12-29T11:17:46;100118.09;;;11.54;87.08
71778;BME280;59609;52.430;4.668;2022-12-29T11:20:38;100107.47;;;11.51;87.06
71778;BME280;59609;52.430;4.668;2022-12-29T11:23:35;100120.88;;;11.54;87.56
71778;BME280;59609;52.430;4.668;2022-12-29T11:28:36;100130.69;;;11.71;87.14
71778;BME280;59609;52.430;4.668;2022-12-29T11:31:04;100132.75;;;11.55;87.55
71778;BME280;59609;52.430;4.668;2022-12-29T11:33:33;100150.19;;;11.41;87.67
71778;BME280;59609;52.430;4.668;2022-12-29T11:36:07;100134.13;;;11.44;88.07
71778;BME280;59609;52.430;4.668;2022-12-29T11:38:42;100144.38;;;11.35;88.40
71778;BME280;59609;52.430;4.668;2022-12-29T11:41:12;100151.59;;;11.51;88.63
71778;BME280;59609;52.430;4.668;2022-12-29T11:43:41;100149.41;;;11.61;88.70
71778;BME280;59609;52.430;4.668;2022-12-29T11:46:15;100155.53;;;11.71;88.88
71778;BME280;59609;52.430;4.668;2022-12-29T11:48:42;100154.19;;;11.82;90.68
71778;BME280;59609;52.430;4.668;2022-12-29T11:51:09;100160.91;;;12.09;90.53
71778;BME280;59609;52.430;4.668;2022-12-29T11:53:45;100161.66;;;12.53;88.93
71778;BME280;59609;52.430;4.668;2022-12-29T11:56:32;100145.25;;;12.73;87.04
71778;BME280;59609;52.430;4.668;2022-12-29T11:59:37;100161.91;;;12.58;85.68
71778;BME280;59609;52.430;4.668;2022-12-29T12:04:58;100175.53;;;12.60;85.84
71778;BME280;59609;52.430;4.668;2022-12-29T12:07:54;100170.59;;;12.76;84.97
71778;BME280;59609;52.430;4.668;2022-12-29T12:10:31;100177.03;;;12.62;85.55
71778;BME280;59609;52.430;4.668;2022-12-29T12:13:17;100188.06;;;12.77;85.14
71778;BME280;59609;52.430;4.668;2022-12-29T12:15:47;100182.31;;;13.00;84.76
71778;BME280;59609;52.430;4.668;2022-12-29T12:18:21;100188.94;;;13.05;83.61
71778;BME280;59609;52.430;4.668;2022-12-29T12:20:54;100188.28;;;13.52;81.63
71778;BME280;59609;52.430;4.668;2022-12-29T12:26:16;100191.97;;;12.89;82.56
71778;BME280;59609;52.430;4.668;2022-12-29T12:29:10;100198.53;;;12.46;84.47
71778;BME280;59609;52.430;4.668;2022-12-29T12:31:44;100193.25;;;12.29;85.03
71778;BME280;59609;52.430;4.668;2022-12-29T12:34:17;100188.69;;;12.22;84.77
71778;BME280;59609;52.430;4.668;2022-12-29T12:42:10;100207.31;;;11.84;85.95
71778;BME280;59609;52.430;4.668;2022-12-29T12:47:48;100212.47;;;11.64;86.60
71778;BME280;59609;52.430;4.668;2022-12-29T12:50:43;100213.47;;;11.71;86.78
71778;BME280;59609;52.430;4.668;2022-12-29T12:58:43;100211.38;;;12.03;84.50
71778;BME280;59609;52.430;4.668;2022-12-29T13:17:36;100225.75;;;11.31;88.61
71778;BME280;59609;52.430;4.668;2022-12-29T13:20:32;100226.94;;;11.37;88.46
71778;BME280;59609;52.430;4.668;2022-12-29T13:31:07;100242.69;;;11.28;88.75
71778;BME280;59609;52.430;4.668;2022-12-29T13:36:13;100233.41;;;11.44;87.73
71778;BME280;59609;52.430;4.668;2022-12-29T13:38:45;100233.69;;;11.49;88.60
71778;BME280;59609;52.430;4.668;2022-12-29T13:43:54;100236.50;;;11.26;89.09
71778;BME280;59609;52.430;4.668;2022-12-29T13:46:27;100243.25;;;11.24;88.90
71778;BME280;59609;52.430;4.668;2022-12-29T13:48:59;100228.03;;;11.28;88.76
71778;BME280;59609;52.430;4.668;2022-12-29T13:51:26;100225.81;;;11.09;89.02
71778;BME280;59609;52.430;4.668;2022-12-29T13:54:01;100238.94;;;11.21;89.19
71778;BME280;59609;52.430;4.668;2022-12-29T13:59:38;100236.28;;;11.13;89.57
71778;BME280;59609;52.430;4.668;2022-12-29T14:04:34;100222.41;;;11.21;89.74
71778;BME280;59609;52.430;4.668;2022-12-29T14:07:04;100228.25;;;11.26;90.19
71778;BME280;59609;52.430;4.668;2022-12-29T14:09:46;100227.69;;;11.08;90.54
71778;BME280;59609;52.430;4.668;2022-12-29T14:12:31;100240.94;;;11.13;91.21
71778;BME280;59609;52.430;4.668;2022-12-29T14:17:29;100226.53;;;11.03;92.46
71778;BME280;59609;52.430;4.668;2022-12-29T14:19:55;100226.00;;;10.84;93.18
71778;BME280;59609;52.430;4.668;2022-12-29T14:22:28;100243.75;;;10.82;94.20
71778;BME280;59609;52.430;4.668;2022-12-29T14:24:54;100229.59;;;11.08;93.44
71778;BME280;59609;52.430;4.668;2022-12-29T14:29:49;100233.56;;;10.91;94.66
71778;BME280;59609;52.430;4.668;2022-12-29T14:34:53;100259.25;;;10.83;97.83
71778;BME280;59609;52.430;4.668;2022-12-29T14:37:29;100250.88;;;10.76;98.92
71778;BME280;59609;52.430;4.668;2022-12-29T14:40:17;100240.09;;;10.67;100.00
71778;BME280;59609;52.430;4.668;2022-12-29T14:42:43;100236.03;;;10.77;100.00
71778;BME280;59609;52.430;4.668;2022-12-29T14:47:43;100250.72;;;10.47;100.00
71778;BME280;59609;52.430;4.668;2022-12-29T14:52:55;100256.72;;;10.51;100.00
71778;BME280;59609;52.430;4.668;2022-12-29T14:55:44;100239.97;;;10.60;100.00
71778;BME280;59609;52.430;4.668;2022-12-29T14:58:30;100239.34;;;10.73;100.00
71778;BME280;59609;52.430;4.668;2022-12-29T15:00:58;100251.00;;;10.52;100.00
71778;BME280;59609;52.430;4.668;2022-12-29T15:03:43;100272.06;;;10.45;100.00
71778;BME280;59609;52.430;4.668;2022-12-29T15:06:11;100276.91;;;10.35;100.00
71778;BME280;59609;52.430;4.668;2022-12-29T15:08:44;100282.94;;;10.39;100.00
71778;BME280;59609;52.430;4.668;2022-12-29T15:11:21;100278.78;;;10.43;100.00
71778;BME280;59609;52.430;4.668;2022-12-29T15:13:47;100278.66;;;10.36;100.00
71778;BME280;59609;52.430;4.668;2022-12-29T15:16:29;100273.31;;;10.34;100.00